FDB1715 OMDB-UMMS
Flight info
| Callsign | FDB1715 |
|---|---|
| Flight time | 5h 34m |
| Altitude | 31000 |
| Route | DAVMO M318 GABKO M317 RADEB M318 ASMUK/N0481F320 W32 PURKI M715 OBRIX/N0467F340 N39 ULDUS N23 MOTEG/K0859F340 B945 UP N50 SL/K0857F360 N50 OLOPI L736 ASKIL M863 RUHAL RUHAL2H |
| Aircraft | B738/M-SDE2E3FGHIRWXY/LB1 |
Departure
| Time | 2026-05-05 12:19 |
|---|---|
| Airport | Dubai International Airport (OMDB) |
Arrival
| Time | 2026-05-05 17:54 |
|---|---|
| Airport | Minsk National Airport (UMMS) |
| Time | Latitude | Longitude | Altitude | Speed | Heading |
|---|---|---|---|---|---|
| 2026-05-05 11:34 | 25.26507 | 55.35701 | 21 ft | 0 kts | 31° |
| 2026-05-05 12:06 | 25.26503 | 55.35699 | 45 ft | 3 kts | 31° |
| 2026-05-05 12:06 | 25.26481 | 55.35684 | 49 ft | 4 kts | 31° |
| 2026-05-05 12:06 | 25.26462 | 55.35672 | 23 ft | 3 kts | 32° |
| 2026-05-05 12:06 | 25.26446 | 55.35654 | 24 ft | 4 kts | 85° |
| 2026-05-05 12:07 | 25.26453 | 55.35630 | 23 ft | 4 kts | 122° |
| 2026-05-05 12:07 | 25.26461 | 55.35615 | 21 ft | 0 kts | 122° |
| 2026-05-05 12:10 | 25.26459 | 55.35619 | 21 ft | 4 kts | 122° |
| 2026-05-05 12:11 | 25.26421 | 55.35685 | 21 ft | 13 kts | 121° |
| 2026-05-05 12:11 | 25.26375 | 55.35769 | 23 ft | 13 kts | 121° |
| 2026-05-05 12:11 | 25.26330 | 55.35850 | 21 ft | 12 kts | 121° |
| 2026-05-05 12:11 | 25.26284 | 55.35929 | 21 ft | 12 kts | 123° |
| 2026-05-05 12:12 | 25.26240 | 55.36005 | 21 ft | 12 kts | 121° |
| 2026-05-05 12:12 | 25.26193 | 55.36091 | 22 ft | 14 kts | 121° |
| 2026-05-05 12:12 | 25.26137 | 55.36191 | 21 ft | 17 kts | 122° |
| 2026-05-05 12:12 | 25.26074 | 55.36302 | 21 ft | 17 kts | 122° |
| 2026-05-05 12:13 | 25.26013 | 55.36409 | 21 ft | 16 kts | 122° |
| 2026-05-05 12:13 | 25.25954 | 55.36512 | 23 ft | 16 kts | 122° |
| 2026-05-05 12:13 | 25.25900 | 55.36613 | 21 ft | 15 kts | 121° |
| 2026-05-05 12:13 | 25.25848 | 55.36708 | 22 ft | 14 kts | 121° |
| 2026-05-05 12:14 | 25.25796 | 55.36799 | 21 ft | 14 kts | 122° |
| 2026-05-05 12:14 | 25.25747 | 55.36886 | 22 ft | 13 kts | 122° |
| 2026-05-05 12:14 | 25.25692 | 55.36981 | 21 ft | 16 kts | 121° |
| 2026-05-05 12:14 | 25.25633 | 55.37088 | 22 ft | 16 kts | 121° |
| 2026-05-05 12:15 | 25.25565 | 55.37209 | 23 ft | 19 kts | 122° |
| 2026-05-05 12:15 | 25.25496 | 55.37333 | 21 ft | 19 kts | 121° |
| 2026-05-05 12:15 | 25.25430 | 55.37452 | 21 ft | 18 kts | 121° |
| 2026-05-05 12:15 | 25.25364 | 55.37571 | 23 ft | 19 kts | 122° |
| 2026-05-05 12:16 | 25.25297 | 55.37690 | 21 ft | 18 kts | 122° |
| 2026-05-05 12:16 | 25.25232 | 55.37804 | 23 ft | 17 kts | 122° |
| 2026-05-05 12:16 | 25.25168 | 55.37914 | 21 ft | 17 kts | 122° |
| 2026-05-05 12:16 | 25.25108 | 55.38020 | 23 ft | 16 kts | 121° |
| 2026-05-05 12:17 | 25.25052 | 55.38123 | 21 ft | 15 kts | 121° |
| 2026-05-05 12:17 | 25.24967 | 55.38153 | 21 ft | 15 kts | 208° |
| 2026-05-05 12:17 | 25.24900 | 55.38107 | 24 ft | 3 kts | 212° |
| 2026-05-05 12:17 | 25.24893 | 55.38102 | 25 ft | 0 kts | 211° |
| 2026-05-05 12:18 | 25.24886 | 55.38098 | 25 ft | 5 kts | 211° |
| 2026-05-05 12:18 | 25.24827 | 55.38051 | 29 ft | 15 kts | 238° |
| 2026-05-05 12:18 | 25.24886 | 55.37887 | 29 ft | 41 kts | 301° |
| 2026-05-05 12:18 | 25.25167 | 55.37383 | 30 ft | 109 kts | 302° |
| 2026-05-05 12:19 | 25.25661 | 55.36495 | 28 ft | 164 kts | 302° |
| 2026-05-05 12:19 | 25.26326 | 55.35262 | 280 ft | 192 kts | 303° |
| 2026-05-05 12:19 | 25.27041 | 55.33964 | 842 ft | 209 kts | 305° |
| 2026-05-05 12:19 | 25.27893 | 55.32561 | 1283 ft | 221 kts | 306° |
| 2026-05-05 12:20 | 25.28704 | 55.31135 | 2032 ft | 220 kts | 303° |
| 2026-05-05 12:20 | 25.29674 | 55.29796 | 2315 ft | 230 kts | 331° |
| 2026-05-05 12:20 | 25.31190 | 55.29377 | 2704 ft | 229 kts | 4° |
| 2026-05-05 12:20 | 25.32827 | 55.29470 | 3037 ft | 242 kts | 4° |
| 2026-05-05 12:21 | 25.34540 | 55.29545 | 3556 ft | 248 kts | 4° |
| 2026-05-05 12:21 | 25.36264 | 55.29611 | 4215 ft | 248 kts | 4° |
| 2026-05-05 12:21 | 25.38012 | 55.29663 | 4733 ft | 252 kts | 3° |
| 2026-05-05 12:21 | 25.39769 | 55.29753 | 5317 ft | 254 kts | 12° |
| 2026-05-05 12:22 | 25.41491 | 55.30352 | 5585 ft | 269 kts | 25° |
| 2026-05-05 12:22 | 25.43231 | 55.31199 | 5894 ft | 282 kts | 26° |
| 2026-05-05 12:22 | 25.45042 | 55.32090 | 6442 ft | 286 kts | 25° |
| 2026-05-05 12:22 | 25.46875 | 55.32977 | 7062 ft | 288 kts | 25° |
| 2026-05-05 12:23 | 25.48712 | 55.33847 | 7750 ft | 287 kts | 24° |
| 2026-05-05 12:23 | 25.50561 | 55.34712 | 8339 ft | 290 kts | 24° |
| 2026-05-05 12:23 | 25.52431 | 55.35584 | 8902 ft | 293 kts | 24° |
| 2026-05-05 12:23 | 25.54313 | 55.36460 | 9539 ft | 294 kts | 24° |
| 2026-05-05 12:24 | 25.56208 | 55.37342 | 10071 ft | 297 kts | 24° |
| 2026-05-05 12:24 | 25.58132 | 55.38285 | 10343 ft | 311 kts | 30° |
| 2026-05-05 12:24 | 25.59985 | 55.39628 | 10535 ft | 326 kts | 37° |
| 2026-05-05 12:24 | 25.61852 | 55.41163 | 10660 ft | 343 kts | 37° |
| 2026-05-05 12:25 | 25.63826 | 55.42769 | 10794 ft | 359 kts | 37° |
| 2026-05-05 12:25 | 25.65899 | 55.44415 | 10885 ft | 375 kts | 36° |
| 2026-05-05 12:25 | 25.67991 | 55.46168 | 10988 ft | 388 kts | 41° |
| 2026-05-05 12:25 | 25.70007 | 55.48205 | 11248 ft | 395 kts | 44° |
| 2026-05-05 12:26 | 25.71979 | 55.50342 | 11646 ft | 398 kts | 45° |
| 2026-05-05 12:26 | 25.73954 | 55.52495 | 12114 ft | 399 kts | 45° |
| 2026-05-05 12:26 | 25.75953 | 55.54646 | 12536 ft | 402 kts | 44° |
| 2026-05-05 12:26 | 25.77985 | 55.56803 | 12937 ft | 405 kts | 43° |
| 2026-05-05 12:27 | 25.80040 | 55.58964 | 13342 ft | 408 kts | 43° |
| 2026-05-05 12:27 | 25.82112 | 55.61132 | 13718 ft | 411 kts | 43° |
| 2026-05-05 12:27 | 25.84194 | 55.63313 | 14062 ft | 413 kts | 43° |
| 2026-05-05 12:27 | 25.86319 | 55.65467 | 14411 ft | 415 kts | 38° |
| 2026-05-05 12:28 | 25.88671 | 55.67260 | 14775 ft | 416 kts | 31° |
| 2026-05-05 12:28 | 25.91152 | 55.68940 | 15134 ft | 418 kts | 30° |
| 2026-05-05 12:28 | 25.93648 | 55.70623 | 15455 ft | 421 kts | 31° |
| 2026-05-05 12:28 | 25.96071 | 55.72289 | 15798 ft | 423 kts | 31° |
| 2026-05-05 12:29 | 25.98593 | 55.74060 | 16158 ft | 425 kts | 32° |
| 2026-05-05 12:29 | 26.01097 | 55.75837 | 16490 ft | 427 kts | 32° |
| 2026-05-05 12:29 | 26.03613 | 55.77608 | 16800 ft | 429 kts | 29° |
| 2026-05-05 12:29 | 26.06341 | 55.78959 | 17087 ft | 430 kts | 16° |
| 2026-05-05 12:30 | 26.09273 | 55.79626 | 17448 ft | 430 kts | 4° |
| 2026-05-05 12:30 | 26.12260 | 55.79615 | 17780 ft | 430 kts | 354° |
| 2026-05-05 12:30 | 26.15249 | 55.79303 | 18060 ft | 433 kts | 354° |
| 2026-05-05 12:30 | 26.18261 | 55.79024 | 18307 ft | 436 kts | 357° |
| 2026-05-05 12:31 | 26.21294 | 55.79172 | 18567 ft | 439 kts | 7° |
| 2026-05-05 12:31 | 26.24308 | 55.79775 | 18861 ft | 440 kts | 10° |
| 2026-05-05 12:31 | 26.27318 | 55.80440 | 19138 ft | 441 kts | 10° |
| 2026-05-05 12:31 | 26.30281 | 55.81101 | 19398 ft | 443 kts | 10° |
| 2026-05-05 12:32 | 26.33270 | 55.81757 | 19655 ft | 445 kts | 9° |
| 2026-05-05 12:32 | 26.36318 | 55.82414 | 19925 ft | 447 kts | 9° |
| 2026-05-05 12:32 | 26.39376 | 55.83062 | 20185 ft | 448 kts | 9° |
| 2026-05-05 12:32 | 26.42448 | 55.83707 | 20446 ft | 449 kts | 9° |
| 2026-05-05 12:33 | 26.45525 | 55.84350 | 20703 ft | 451 kts | 9° |
| 2026-05-05 12:33 | 26.48617 | 55.84996 | 20945 ft | 452 kts | 9° |
| 2026-05-05 12:33 | 26.51721 | 55.85644 | 21169 ft | 455 kts | 9° |
| 2026-05-05 12:33 | 26.54840 | 55.86296 | 21413 ft | 456 kts | 8° |
| 2026-05-05 12:34 | 26.57962 | 55.86949 | 21665 ft | 457 kts | 8° |
| 2026-05-05 12:34 | 26.61087 | 55.87604 | 21893 ft | 458 kts | 8° |
| 2026-05-05 12:34 | 26.64230 | 55.88264 | 22111 ft | 460 kts | 8° |
| 2026-05-05 12:34 | 26.67321 | 55.88912 | 22355 ft | 462 kts | 8° |
| 2026-05-05 12:35 | 26.70479 | 55.89576 | 22604 ft | 462 kts | 8° |
| 2026-05-05 12:35 | 26.73653 | 55.90243 | 22823 ft | 464 kts | 8° |
| 2026-05-05 12:35 | 26.76794 | 55.90884 | 23022 ft | 465 kts | 6° |
| 2026-05-05 12:35 | 26.79999 | 55.91385 | 23235 ft | 465 kts | 4° |
| 2026-05-05 12:36 | 26.83071 | 55.91765 | 23423 ft | 466 kts | 3° |
| 2026-05-05 12:36 | 26.86349 | 55.92131 | 23599 ft | 467 kts | 3° |
| 2026-05-05 12:36 | 26.89589 | 55.92485 | 23763 ft | 469 kts | 3° |
| 2026-05-05 12:36 | 26.92843 | 55.92849 | 23926 ft | 470 kts | 3° |
| 2026-05-05 12:37 | 26.96102 | 55.93226 | 24078 ft | 472 kts | 3° |
| 2026-05-05 12:37 | 26.99375 | 55.93615 | 24240 ft | 473 kts | 3° |
| 2026-05-05 12:37 | 27.02648 | 55.94012 | 24400 ft | 474 kts | 3° |
| 2026-05-05 12:37 | 27.05936 | 55.94415 | 24554 ft | 476 kts | 3° |
| 2026-05-05 12:38 | 27.09231 | 55.94820 | 24702 ft | 477 kts | 2° |
| 2026-05-05 12:38 | 27.11462 | 55.95094 | 24797 ft | 478 kts | 2° |
| 2026-05-05 12:38 | 27.14776 | 55.95502 | 24956 ft | 479 kts | 2° |
| 2026-05-05 12:38 | 27.18090 | 55.95910 | 25115 ft | 480 kts | 2° |
| 2026-05-05 12:39 | 27.21374 | 55.96314 | 25255 ft | 481 kts | 2° |
| 2026-05-05 12:39 | 27.24712 | 55.96725 | 25384 ft | 483 kts | 2° |
| 2026-05-05 12:39 | 27.28064 | 55.97137 | 25513 ft | 484 kts | 2° |
| 2026-05-05 12:39 | 27.31419 | 55.97550 | 25649 ft | 485 kts | 2° |
| 2026-05-05 12:40 | 27.34775 | 55.97964 | 25770 ft | 487 kts | 2° |
| 2026-05-05 12:40 | 27.38153 | 55.98379 | 25900 ft | 488 kts | 2° |
| 2026-05-05 12:40 | 27.41524 | 55.98795 | 26090 ft | 487 kts | 2° |
| 2026-05-05 12:40 | 27.44901 | 55.99212 | 26312 ft | 487 kts | 2° |
| 2026-05-05 12:41 | 27.48270 | 55.99629 | 26524 ft | 486 kts | 1° |
| 2026-05-05 12:41 | 27.51629 | 56.00045 | 26716 ft | 486 kts | 1° |
| 2026-05-05 12:41 | 27.54987 | 56.00460 | 26875 ft | 486 kts | 1° |
| 2026-05-05 12:41 | 27.58356 | 56.00876 | 27049 ft | 487 kts | 1° |
| 2026-05-05 12:42 | 27.61724 | 56.01294 | 27256 ft | 486 kts | 1° |
| 2026-05-05 12:42 | 27.65088 | 56.01712 | 27454 ft | 486 kts | 1° |
| 2026-05-05 12:42 | 27.68455 | 56.02130 | 27666 ft | 486 kts | 1° |
| 2026-05-05 12:42 | 27.71777 | 56.02543 | 27900 ft | 486 kts | 1° |
| 2026-05-05 12:43 | 27.75138 | 56.02960 | 28155 ft | 485 kts | 1° |
| 2026-05-05 12:43 | 27.78493 | 56.03377 | 28565 ft | 483 kts | 0° |
| 2026-05-05 12:43 | 27.81833 | 56.03793 | 28786 ft | 483 kts | 0° |
| 2026-05-05 12:43 | 27.85182 | 56.04208 | 28940 ft | 485 kts | 0° |
| 2026-05-05 12:44 | 27.88544 | 56.04623 | 29086 ft | 486 kts | 360° |
| 2026-05-05 12:44 | 27.91904 | 56.05041 | 29308 ft | 486 kts | 360° |
| 2026-05-05 12:44 | 27.95265 | 56.05460 | 29577 ft | 484 kts | 360° |
| 2026-05-05 12:44 | 27.98606 | 56.05877 | 29801 ft | 484 kts | 359° |
| 2026-05-05 12:45 | 28.01896 | 56.06289 | 30015 ft | 484 kts | 359° |
| 2026-05-05 12:45 | 28.05239 | 56.06705 | 30187 ft | 484 kts | 359° |
| 2026-05-05 12:45 | 28.08589 | 56.07123 | 30344 ft | 483 kts | 359° |
| 2026-05-05 12:45 | 28.11925 | 56.07540 | 30532 ft | 482 kts | 359° |
| 2026-05-05 12:46 | 28.15263 | 56.07778 | 30667 ft | 477 kts | 352° |
| 2026-05-05 12:46 | 28.18534 | 56.07498 | 30840 ft | 467 kts | 343° |
| 2026-05-05 12:46 | 28.24768 | 56.05751 | 30901 ft | 462 kts | 337° |
| 2026-05-05 12:47 | 28.30959 | 56.03817 | 30916 ft | 461 kts | 337° |
| 2026-05-05 12:47 | 28.37154 | 56.01927 | 30930 ft | 460 kts | 338° |
| 2026-05-05 12:48 | 28.43315 | 56.00081 | 30944 ft | 460 kts | 338° |
| 2026-05-05 12:48 | 28.49507 | 55.98233 | 30955 ft | 460 kts | 338° |
| 2026-05-05 12:49 | 28.55701 | 55.96381 | 30972 ft | 460 kts | 338° |
| 2026-05-05 12:49 | 28.61896 | 55.94525 | 30986 ft | 460 kts | 338° |
| 2026-05-05 12:50 | 28.68078 | 55.92671 | 31005 ft | 459 kts | 338° |
| 2026-05-05 12:50 | 28.74267 | 55.90811 | 31021 ft | 460 kts | 338° |
| 2026-05-05 12:51 | 28.80451 | 55.88952 | 31042 ft | 460 kts | 338° |
| 2026-05-05 12:51 | 28.86627 | 55.87092 | 31043 ft | 460 kts | 338° |
| 2026-05-05 12:52 | 28.92815 | 55.85214 | 31052 ft | 460 kts | 338° |
| 2026-05-05 12:52 | 28.98963 | 55.83348 | 31055 ft | 460 kts | 338° |
| 2026-05-05 12:53 | 29.05084 | 55.81481 | 31065 ft | 460 kts | 338° |
| 2026-05-05 12:53 | 29.11281 | 55.79587 | 31061 ft | 461 kts | 337° |
| 2026-05-05 12:54 | 29.20576 | 55.76747 | 31064 ft | 461 kts | 338° |
| 2026-05-05 12:55 | 29.26764 | 55.74856 | 31062 ft | 460 kts | 338° |
| 2026-05-05 12:55 | 29.32960 | 55.72957 | 31071 ft | 460 kts | 337° |
| 2026-05-05 12:56 | 29.39111 | 55.71069 | 31075 ft | 461 kts | 338° |
| 2026-05-05 12:56 | 29.45346 | 55.69154 | 31079 ft | 460 kts | 338° |
| 2026-05-05 12:57 | 29.51529 | 55.67254 | 31086 ft | 460 kts | 338° |
| 2026-05-05 12:57 | 29.57576 | 55.65012 | 31088 ft | 450 kts | 327° |
| 2026-05-05 12:58 | 29.63117 | 55.61809 | 31105 ft | 448 kts | 326° |
| 2026-05-05 12:58 | 29.68700 | 55.58538 | 31097 ft | 447 kts | 326° |
| 2026-05-05 12:59 | 29.74218 | 55.55350 | 31101 ft | 447 kts | 327° |
| 2026-05-05 12:59 | 29.79821 | 55.52136 | 31099 ft | 447 kts | 327° |
| 2026-05-05 13:00 | 29.88136 | 55.47367 | 31103 ft | 447 kts | 327° |
| 2026-05-05 13:01 | 29.99294 | 55.40943 | 31117 ft | 448 kts | 327° |
| 2026-05-05 13:01 | 30.04820 | 55.37755 | 31114 ft | 448 kts | 327° |
| 2026-05-05 13:02 | 30.10400 | 55.34530 | 31119 ft | 448 kts | 327° |
| 2026-05-05 13:02 | 30.15974 | 55.31303 | 31117 ft | 448 kts | 327° |
| 2026-05-05 13:03 | 30.21544 | 55.28071 | 31125 ft | 448 kts | 327° |
| 2026-05-05 13:03 | 30.27117 | 55.24827 | 31133 ft | 449 kts | 327° |
| 2026-05-05 13:04 | 30.32704 | 55.21579 | 31124 ft | 450 kts | 327° |
| 2026-05-05 13:04 | 30.38290 | 55.18327 | 31118 ft | 450 kts | 327° |
| 2026-05-05 13:05 | 30.43884 | 55.15069 | 31119 ft | 451 kts | 327° |
| 2026-05-05 13:05 | 30.49481 | 55.11802 | 31116 ft | 450 kts | 327° |
| 2026-05-05 13:06 | 30.55079 | 55.08529 | 31116 ft | 450 kts | 327° |
| 2026-05-05 13:06 | 30.60656 | 55.05261 | 31109 ft | 449 kts | 327° |
| 2026-05-05 13:07 | 30.66232 | 55.01992 | 31103 ft | 448 kts | 327° |
| 2026-05-05 13:07 | 30.71805 | 54.98725 | 31097 ft | 448 kts | 327° |
| 2026-05-05 13:08 | 30.77364 | 54.95461 | 31094 ft | 448 kts | 327° |
| 2026-05-05 13:08 | 30.82925 | 54.92181 | 31079 ft | 448 kts | 327° |
| 2026-05-05 13:09 | 30.88498 | 54.88887 | 31085 ft | 450 kts | 327° |
| 2026-05-05 13:09 | 30.94086 | 54.85583 | 31067 ft | 452 kts | 327° |
| 2026-05-05 13:10 | 30.99724 | 54.82245 | 31062 ft | 455 kts | 327° |
| 2026-05-05 13:10 | 31.05372 | 54.78900 | 31052 ft | 456 kts | 327° |
| 2026-05-05 13:11 | 31.11039 | 54.75536 | 31054 ft | 457 kts | 327° |
| 2026-05-05 13:11 | 31.16703 | 54.72169 | 31049 ft | 457 kts | 327° |
| 2026-05-05 13:12 | 31.22376 | 54.68793 | 31045 ft | 457 kts | 327° |
| 2026-05-05 13:12 | 31.28044 | 54.65417 | 31039 ft | 457 kts | 327° |
| 2026-05-05 13:13 | 31.33703 | 54.62039 | 31040 ft | 456 kts | 327° |
| 2026-05-05 13:13 | 31.39354 | 54.58660 | 31035 ft | 456 kts | 327° |
| 2026-05-05 13:14 | 31.44956 | 54.55308 | 31038 ft | 455 kts | 327° |
| 2026-05-05 13:14 | 31.50594 | 54.51929 | 31032 ft | 454 kts | 327° |
| 2026-05-05 13:15 | 31.56217 | 54.48555 | 31029 ft | 454 kts | 327° |
| 2026-05-05 13:15 | 31.61835 | 54.45179 | 31029 ft | 454 kts | 327° |
| 2026-05-05 13:16 | 31.67451 | 54.41798 | 31025 ft | 454 kts | 326° |
| 2026-05-05 13:16 | 31.73059 | 54.38417 | 31009 ft | 453 kts | 327° |
| 2026-05-05 13:17 | 31.78666 | 54.35034 | 31019 ft | 453 kts | 327° |
| 2026-05-05 13:17 | 31.84279 | 54.31642 | 31023 ft | 453 kts | 327° |
| 2026-05-05 13:18 | 31.89965 | 54.28391 | 31019 ft | 459 kts | 333° |
| 2026-05-05 13:18 | 31.96232 | 54.26517 | 31027 ft | 468 kts | 342° |
| 2026-05-05 13:19 | 32.02624 | 54.24984 | 31019 ft | 469 kts | 342° |
| 2026-05-05 13:19 | 32.09015 | 54.23405 | 30993 ft | 469 kts | 342° |
| 2026-05-05 13:20 | 32.14319 | 54.22056 | 30984 ft | 469 kts | 342° |
| 2026-05-05 13:20 | 32.20707 | 54.20418 | 30954 ft | 470 kts | 342° |
| 2026-05-05 13:21 | 32.27100 | 54.18778 | 30918 ft | 470 kts | 342° |
| 2026-05-05 13:21 | 32.33536 | 54.17127 | 30909 ft | 469 kts | 342° |
| 2026-05-05 13:22 | 32.39872 | 54.15498 | 30902 ft | 469 kts | 342° |
| 2026-05-05 13:22 | 32.46230 | 54.13833 | 30893 ft | 467 kts | 341° |
| 2026-05-05 13:23 | 32.52572 | 54.12159 | 30884 ft | 467 kts | 341° |
| 2026-05-05 13:23 | 32.58910 | 54.10487 | 30870 ft | 466 kts | 341° |
| 2026-05-05 13:24 | 32.65248 | 54.08811 | 30865 ft | 466 kts | 341° |
| 2026-05-05 13:24 | 32.71576 | 54.07141 | 30860 ft | 466 kts | 341° |
| 2026-05-05 13:25 | 32.77906 | 54.05466 | 30859 ft | 467 kts | 341° |
| 2026-05-05 13:25 | 32.84252 | 54.03785 | 30850 ft | 467 kts | 342° |
| 2026-05-05 13:26 | 32.90610 | 54.02142 | 30850 ft | 468 kts | 342° |
| 2026-05-05 13:26 | 32.96984 | 54.00553 | 30847 ft | 468 kts | 342° |
| 2026-05-05 13:27 | 33.03367 | 53.98953 | 30843 ft | 469 kts | 342° |
| 2026-05-05 13:27 | 33.09750 | 53.97342 | 30853 ft | 469 kts | 342° |
| 2026-05-05 13:28 | 33.16088 | 53.95589 | 30831 ft | 463 kts | 334° |
| 2026-05-05 13:28 | 33.18916 | 53.93882 | 30855 ft | 452 kts | 321° |
| 2026-05-05 13:28 | 33.21338 | 53.91551 | 30839 ft | 444 kts | 310° |
| 2026-05-05 13:29 | 33.24993 | 53.85728 | 30847 ft | 438 kts | 300° |
| 2026-05-05 13:29 | 33.28466 | 53.79753 | 30847 ft | 438 kts | 301° |
| 2026-05-05 13:30 | 33.31990 | 53.73806 | 30846 ft | 439 kts | 301° |
| 2026-05-05 13:30 | 33.35529 | 53.67863 | 30849 ft | 439 kts | 301° |
| 2026-05-05 13:31 | 33.39365 | 53.62139 | 30834 ft | 447 kts | 312° |
| 2026-05-05 13:31 | 33.44071 | 53.57240 | 30844 ft | 450 kts | 315° |
| 2026-05-05 13:32 | 33.48820 | 53.52349 | 30854 ft | 450 kts | 314° |
| 2026-05-05 13:32 | 33.53535 | 53.47401 | 30850 ft | 450 kts | 314° |
| 2026-05-05 13:33 | 33.58237 | 53.42438 | 30850 ft | 450 kts | 314° |
| 2026-05-05 13:33 | 33.62920 | 53.37445 | 30845 ft | 451 kts | 313° |
| 2026-05-05 13:34 | 33.67604 | 53.32437 | 30844 ft | 451 kts | 313° |
| 2026-05-05 13:34 | 33.72296 | 53.27417 | 30836 ft | 452 kts | 313° |
| 2026-05-05 13:35 | 33.76993 | 53.22386 | 30825 ft | 452 kts | 313° |
| 2026-05-05 13:35 | 33.81654 | 53.17386 | 30833 ft | 452 kts | 313° |
| 2026-05-05 13:36 | 33.86343 | 53.12350 | 30829 ft | 452 kts | 313° |
| 2026-05-05 13:36 | 33.91029 | 53.07308 | 30834 ft | 452 kts | 313° |
| 2026-05-05 13:37 | 33.95716 | 53.02258 | 30825 ft | 452 kts | 313° |
| 2026-05-05 13:37 | 34.00398 | 52.97209 | 30825 ft | 452 kts | 313° |
| 2026-05-05 13:38 | 34.05073 | 52.92156 | 30829 ft | 451 kts | 313° |
| 2026-05-05 13:38 | 34.09742 | 52.87096 | 30825 ft | 451 kts | 313° |
| 2026-05-05 13:39 | 34.14398 | 52.82041 | 30817 ft | 450 kts | 313° |
| 2026-05-05 13:39 | 34.19065 | 52.76981 | 30823 ft | 452 kts | 313° |
| 2026-05-05 13:40 | 34.23722 | 52.71902 | 30814 ft | 452 kts | 313° |
| 2026-05-05 13:40 | 34.28407 | 52.66804 | 30823 ft | 453 kts | 314° |
| 2026-05-05 13:41 | 34.33043 | 52.61756 | 30833 ft | 457 kts | 313° |
| 2026-05-05 13:41 | 34.37755 | 52.56605 | 30833 ft | 457 kts | 313° |
| 2026-05-05 13:42 | 34.42502 | 52.51414 | 30831 ft | 458 kts | 313° |
| 2026-05-05 13:42 | 34.47189 | 52.46276 | 30827 ft | 458 kts | 313° |
| 2026-05-05 13:43 | 34.51914 | 52.41089 | 30825 ft | 458 kts | 313° |
| 2026-05-05 13:43 | 34.56636 | 52.35891 | 30825 ft | 459 kts | 313° |
| 2026-05-05 13:44 | 34.61364 | 52.30684 | 30822 ft | 459 kts | 313° |
| 2026-05-05 13:44 | 34.66092 | 52.25471 | 30824 ft | 460 kts | 313° |
| 2026-05-05 13:45 | 34.70828 | 52.20240 | 30808 ft | 459 kts | 313° |
| 2026-05-05 13:45 | 34.75884 | 52.15446 | 30835 ft | 467 kts | 326° |
| 2026-05-05 13:46 | 34.81983 | 52.12494 | 30825 ft | 479 kts | 341° |
| 2026-05-05 13:46 | 34.88489 | 52.10690 | 30822 ft | 480 kts | 342° |
| 2026-05-05 13:47 | 34.95001 | 52.08867 | 30827 ft | 480 kts | 341° |
| 2026-05-05 13:47 | 35.01496 | 52.06958 | 30833 ft | 480 kts | 341° |
| 2026-05-05 13:48 | 35.07944 | 52.04917 | 30840 ft | 479 kts | 339° |
| 2026-05-05 13:48 | 35.14350 | 52.02688 | 30842 ft | 478 kts | 339° |
| 2026-05-05 13:49 | 35.20735 | 52.00463 | 30864 ft | 479 kts | 339° |
| 2026-05-05 13:49 | 35.27165 | 51.98248 | 30880 ft | 479 kts | 339° |
| 2026-05-05 13:50 | 35.33590 | 51.96044 | 30888 ft | 480 kts | 339° |
| 2026-05-05 13:50 | 35.40031 | 51.93835 | 30906 ft | 481 kts | 339° |
| 2026-05-05 13:51 | 35.46486 | 51.91615 | 30921 ft | 482 kts | 339° |
| 2026-05-05 13:51 | 35.52951 | 51.89389 | 30942 ft | 483 kts | 339° |
| 2026-05-05 13:52 | 35.59421 | 51.87156 | 30955 ft | 484 kts | 339° |
| 2026-05-05 13:52 | 35.65919 | 51.84911 | 30980 ft | 484 kts | 339° |
| 2026-05-05 13:53 | 35.72415 | 51.82662 | 31000 ft | 484 kts | 339° |
| 2026-05-05 13:53 | 35.78897 | 51.80414 | 31017 ft | 484 kts | 339° |
| 2026-05-05 13:54 | 35.85383 | 51.78161 | 31028 ft | 484 kts | 339° |
| 2026-05-05 13:54 | 35.91860 | 51.75908 | 31026 ft | 484 kts | 339° |
| 2026-05-05 13:55 | 35.98304 | 51.73543 | 31043 ft | 482 kts | 336° |
| 2026-05-05 13:55 | 36.04602 | 51.71020 | 31045 ft | 480 kts | 336° |
| 2026-05-05 13:56 | 36.10950 | 51.68467 | 31039 ft | 479 kts | 336° |
| 2026-05-05 13:56 | 36.17292 | 51.65944 | 31031 ft | 479 kts | 336° |
| 2026-05-05 13:57 | 36.23655 | 51.63421 | 31013 ft | 480 kts | 336° |
| 2026-05-05 13:57 | 36.30017 | 51.60894 | 31003 ft | 482 kts | 336° |
| 2026-05-05 13:58 | 36.36414 | 51.58349 | 30975 ft | 483 kts | 336° |
| 2026-05-05 13:58 | 36.42821 | 51.55800 | 30952 ft | 484 kts | 336° |
| 2026-05-05 13:59 | 36.52428 | 51.51961 | 30926 ft | 483 kts | 336° |
| 2026-05-05 14:00 | 36.60963 | 51.48544 | 30917 ft | 483 kts | 336° |
| 2026-05-05 14:00 | 36.68465 | 51.45599 | 30910 ft | 485 kts | 338° |
| 2026-05-05 14:01 | 36.74990 | 51.43427 | 30909 ft | 486 kts | 339° |
| 2026-05-05 14:01 | 36.81544 | 51.41351 | 30925 ft | 486 kts | 340° |
| 2026-05-05 14:02 | 36.86995 | 51.39606 | 30930 ft | 485 kts | 340° |
| 2026-05-05 14:02 | 36.94635 | 51.37159 | 30938 ft | 485 kts | 340° |
| 2026-05-05 14:03 | 37.00010 | 51.35359 | 30961 ft | 490 kts | 339° |
| 2026-05-05 14:03 | 37.06599 | 51.33107 | 30953 ft | 492 kts | 339° |
| 2026-05-05 14:04 | 37.13240 | 51.30906 | 30974 ft | 496 kts | 340° |
| 2026-05-05 14:04 | 37.19879 | 51.28690 | 30969 ft | 491 kts | 339° |
| 2026-05-05 14:05 | 37.26515 | 51.26444 | 30966 ft | 494 kts | 340° |
| 2026-05-05 14:05 | 37.33212 | 51.24263 | 30942 ft | 499 kts | 339° |
| 2026-05-05 14:06 | 37.39930 | 51.22027 | 30946 ft | 499 kts | 339° |
| 2026-05-05 14:06 | 37.46598 | 51.19745 | 30962 ft | 492 kts | 339° |
| 2026-05-05 14:07 | 37.53248 | 51.17568 | 30966 ft | 495 kts | 340° |
| 2026-05-05 14:07 | 37.59883 | 51.15294 | 30955 ft | 491 kts | 338° |
| 2026-05-05 14:08 | 37.66490 | 51.13009 | 30947 ft | 492 kts | 338° |
| 2026-05-05 14:08 | 37.73058 | 51.10787 | 30942 ft | 490 kts | 339° |
| 2026-05-05 14:09 | 37.79676 | 51.08655 | 30933 ft | 493 kts | 339° |
| 2026-05-05 14:09 | 37.86313 | 51.06429 | 30921 ft | 496 kts | 339° |
| 2026-05-05 14:10 | 37.92990 | 51.04161 | 30927 ft | 498 kts | 339° |
| 2026-05-05 14:10 | 37.99648 | 51.01683 | 30958 ft | 500 kts | 338° |
| 2026-05-05 14:11 | 38.06341 | 50.99338 | 30933 ft | 502 kts | 339° |
| 2026-05-05 14:11 | 38.12990 | 50.96913 | 30935 ft | 494 kts | 338° |
| 2026-05-05 14:12 | 38.19599 | 50.94337 | 30977 ft | 500 kts | 336° |
| 2026-05-05 14:12 | 38.26277 | 50.91753 | 30974 ft | 503 kts | 337° |
| 2026-05-05 14:13 | 38.33011 | 50.89225 | 30957 ft | 501 kts | 337° |
| 2026-05-05 14:13 | 38.39715 | 50.86848 | 30977 ft | 500 kts | 338° |
| 2026-05-05 14:14 | 38.46408 | 50.84324 | 30940 ft | 502 kts | 337° |
| 2026-05-05 14:14 | 38.53095 | 50.81777 | 30943 ft | 501 kts | 336° |
| 2026-05-05 14:15 | 38.59763 | 50.79147 | 30953 ft | 502 kts | 336° |
| 2026-05-05 14:15 | 38.66458 | 50.76559 | 30956 ft | 504 kts | 336° |
| 2026-05-05 14:16 | 38.73193 | 50.73982 | 30953 ft | 507 kts | 336° |
| 2026-05-05 14:16 | 38.79965 | 50.71394 | 30953 ft | 508 kts | 336° |
| 2026-05-05 14:17 | 38.86716 | 50.68725 | 30945 ft | 505 kts | 332° |
| 2026-05-05 14:17 | 38.92844 | 50.64665 | 30956 ft | 492 kts | 320° |
| 2026-05-05 14:18 | 38.98680 | 50.60079 | 30942 ft | 492 kts | 320° |
| 2026-05-05 14:18 | 39.04529 | 50.55511 | 30953 ft | 492 kts | 320° |
| 2026-05-05 14:19 | 39.10405 | 50.50986 | 30954 ft | 492 kts | 320° |
| 2026-05-05 14:19 | 39.16292 | 50.46464 | 30953 ft | 493 kts | 320° |
| 2026-05-05 14:20 | 39.22179 | 50.41927 | 30941 ft | 493 kts | 320° |
| 2026-05-05 14:20 | 39.28000 | 50.37437 | 30959 ft | 490 kts | 320° |
| 2026-05-05 14:21 | 39.33853 | 50.32926 | 30944 ft | 490 kts | 320° |
| 2026-05-05 14:21 | 39.39737 | 50.28386 | 30950 ft | 489 kts | 320° |
| 2026-05-05 14:22 | 39.45523 | 50.23880 | 30945 ft | 489 kts | 320° |
| 2026-05-05 14:22 | 39.51348 | 50.19341 | 30945 ft | 489 kts | 320° |
| 2026-05-05 14:23 | 39.57175 | 50.14800 | 30944 ft | 489 kts | 320° |
| 2026-05-05 14:23 | 39.62995 | 50.10260 | 30943 ft | 488 kts | 320° |
| 2026-05-05 14:24 | 39.68812 | 50.05708 | 30938 ft | 488 kts | 320° |
| 2026-05-05 14:24 | 39.74548 | 50.01212 | 30944 ft | 488 kts | 320° |
| 2026-05-05 14:25 | 39.80350 | 49.96657 | 30938 ft | 487 kts | 321° |
| 2026-05-05 14:25 | 39.86176 | 49.92095 | 30933 ft | 489 kts | 321° |
| 2026-05-05 14:26 | 39.92018 | 49.87551 | 30928 ft | 488 kts | 321° |
| 2026-05-05 14:26 | 39.97744 | 49.83035 | 30934 ft | 485 kts | 321° |
| 2026-05-05 14:27 | 40.03520 | 49.78487 | 30940 ft | 484 kts | 321° |
| 2026-05-05 14:27 | 40.09287 | 49.73941 | 30935 ft | 483 kts | 321° |
| 2026-05-05 14:28 | 40.15027 | 49.69409 | 30934 ft | 481 kts | 322° |
| 2026-05-05 14:28 | 40.20709 | 49.64911 | 30936 ft | 481 kts | 322° |
| 2026-05-05 14:29 | 40.26443 | 49.60363 | 30935 ft | 481 kts | 322° |
| 2026-05-05 14:29 | 40.32171 | 49.55810 | 30938 ft | 481 kts | 322° |
| 2026-05-05 14:30 | 40.37892 | 49.51254 | 30932 ft | 481 kts | 322° |
| 2026-05-05 14:30 | 40.43625 | 49.46681 | 30927 ft | 482 kts | 322° |
| 2026-05-05 14:31 | 40.49362 | 49.42095 | 30939 ft | 483 kts | 322° |
| 2026-05-05 14:31 | 40.55087 | 49.37559 | 30930 ft | 485 kts | 323° |
| 2026-05-05 14:32 | 40.60973 | 49.33184 | 30931 ft | 486 kts | 324° |
| 2026-05-05 14:32 | 40.66875 | 49.28809 | 30940 ft | 486 kts | 324° |
| 2026-05-05 14:33 | 40.72754 | 49.24391 | 30938 ft | 486 kts | 323° |
| 2026-05-05 14:33 | 40.78524 | 49.19795 | 30940 ft | 484 kts | 321° |
| 2026-05-05 14:34 | 40.84217 | 49.15034 | 30939 ft | 482 kts | 321° |
| 2026-05-05 14:34 | 40.89843 | 49.10332 | 30958 ft | 481 kts | 321° |
| 2026-05-05 14:35 | 40.95445 | 49.05677 | 30965 ft | 482 kts | 321° |
| 2026-05-05 14:35 | 41.01133 | 49.00959 | 30951 ft | 483 kts | 321° |
| 2026-05-05 14:36 | 41.06831 | 48.96226 | 30976 ft | 483 kts | 321° |
| 2026-05-05 14:36 | 41.12528 | 48.91480 | 30962 ft | 484 kts | 321° |
| 2026-05-05 14:37 | 41.18220 | 48.86730 | 30961 ft | 483 kts | 321° |
| 2026-05-05 14:37 | 41.23921 | 48.81960 | 30958 ft | 484 kts | 320° |
| 2026-05-05 14:38 | 41.29633 | 48.77172 | 30963 ft | 485 kts | 320° |
| 2026-05-05 14:38 | 41.35336 | 48.72381 | 30971 ft | 485 kts | 320° |
| 2026-05-05 14:39 | 41.41013 | 48.67603 | 30965 ft | 485 kts | 320° |
| 2026-05-05 14:39 | 41.46722 | 48.62788 | 30968 ft | 485 kts | 320° |
| 2026-05-05 14:40 | 41.52428 | 48.57964 | 30968 ft | 485 kts | 320° |
| 2026-05-05 14:40 | 41.58127 | 48.53136 | 30972 ft | 485 kts | 320° |
| 2026-05-05 14:41 | 41.63823 | 48.48301 | 30966 ft | 484 kts | 320° |
| 2026-05-05 14:41 | 41.69816 | 48.44003 | 30964 ft | 498 kts | 333° |
| 2026-05-05 14:42 | 41.76510 | 48.41338 | 30971 ft | 503 kts | 338° |
| 2026-05-05 14:42 | 41.83249 | 48.38819 | 30966 ft | 502 kts | 337° |
| 2026-05-05 14:43 | 41.89910 | 48.36223 | 30967 ft | 501 kts | 336° |
| 2026-05-05 14:43 | 41.96605 | 48.33553 | 30969 ft | 501 kts | 336° |
| 2026-05-05 14:44 | 42.03226 | 48.30907 | 30971 ft | 502 kts | 336° |
| 2026-05-05 14:44 | 42.09925 | 48.28220 | 30966 ft | 501 kts | 334° |
| 2026-05-05 14:45 | 42.16373 | 48.24864 | 30965 ft | 495 kts | 329° |
| 2026-05-05 14:45 | 42.22713 | 48.21234 | 30959 ft | 491 kts | 325° |
| 2026-05-05 14:46 | 42.25628 | 48.18939 | 30958 ft | 480 kts | 316° |
| 2026-05-05 14:46 | 42.28362 | 48.16352 | 30965 ft | 479 kts | 315° |
| 2026-05-05 14:46 | 42.33769 | 48.11081 | 30960 ft | 479 kts | 315° |
| 2026-05-05 14:47 | 42.38313 | 48.06680 | 30955 ft | 480 kts | 315° |
| 2026-05-05 14:47 | 42.43748 | 48.01476 | 30957 ft | 481 kts | 316° |
| 2026-05-05 14:48 | 42.49218 | 47.96256 | 30960 ft | 481 kts | 316° |
| 2026-05-05 14:48 | 42.54685 | 47.91027 | 30957 ft | 481 kts | 315° |
| 2026-05-05 14:49 | 42.60149 | 47.85784 | 30960 ft | 481 kts | 315° |
| 2026-05-05 14:49 | 42.65611 | 47.80531 | 30961 ft | 481 kts | 315° |
| 2026-05-05 14:50 | 42.71034 | 47.75304 | 30971 ft | 480 kts | 315° |
| 2026-05-05 14:50 | 42.76479 | 47.70045 | 30968 ft | 480 kts | 315° |
| 2026-05-05 14:51 | 42.82277 | 47.65390 | 30976 ft | 495 kts | 330° |
| 2026-05-05 14:51 | 42.89052 | 47.63057 | 30985 ft | 510 kts | 345° |
| 2026-05-05 14:52 | 42.96111 | 47.61891 | 30964 ft | 511 kts | 347° |
| 2026-05-05 14:52 | 43.03067 | 47.60768 | 30954 ft | 508 kts | 346° |
| 2026-05-05 14:53 | 43.10078 | 47.59534 | 30951 ft | 506 kts | 346° |
| 2026-05-05 14:53 | 43.17058 | 47.58255 | 30944 ft | 504 kts | 346° |
| 2026-05-05 14:54 | 43.24006 | 47.56974 | 30941 ft | 502 kts | 346° |
| 2026-05-05 14:54 | 43.30859 | 47.55715 | 30952 ft | 501 kts | 346° |
| 2026-05-05 14:55 | 43.37789 | 47.54436 | 30944 ft | 499 kts | 346° |
| 2026-05-05 14:55 | 43.44661 | 47.53173 | 30941 ft | 498 kts | 346° |
| 2026-05-05 14:56 | 43.51526 | 47.51904 | 30941 ft | 496 kts | 347° |
| 2026-05-05 14:56 | 43.58346 | 47.50641 | 30943 ft | 494 kts | 347° |
| 2026-05-05 14:57 | 43.65171 | 47.49384 | 30944 ft | 493 kts | 348° |
| 2026-05-05 14:57 | 43.71975 | 47.48165 | 30941 ft | 492 kts | 348° |
| 2026-05-05 14:58 | 43.78720 | 47.46953 | 30947 ft | 491 kts | 348° |
| 2026-05-05 14:58 | 43.85487 | 47.45733 | 30941 ft | 490 kts | 348° |
| 2026-05-05 14:59 | 43.92228 | 47.44511 | 30944 ft | 487 kts | 348° |
| 2026-05-05 14:59 | 43.98938 | 47.43294 | 30937 ft | 486 kts | 349° |
| 2026-05-05 15:00 | 44.04547 | 47.42274 | 30943 ft | 484 kts | 349° |
| 2026-05-05 15:00 | 44.12296 | 47.40858 | 30935 ft | 483 kts | 349° |
| 2026-05-05 15:01 | 44.18968 | 47.39638 | 30938 ft | 483 kts | 349° |
| 2026-05-05 15:01 | 44.25632 | 47.38417 | 30933 ft | 483 kts | 349° |
| 2026-05-05 15:02 | 44.32340 | 47.37180 | 30937 ft | 484 kts | 349° |
| 2026-05-05 15:02 | 44.39010 | 47.35954 | 30936 ft | 484 kts | 349° |
| 2026-05-05 15:03 | 44.45642 | 47.34733 | 30947 ft | 483 kts | 349° |
| 2026-05-05 15:03 | 44.52308 | 47.33501 | 30938 ft | 483 kts | 349° |
| 2026-05-05 15:04 | 44.58959 | 47.32238 | 30943 ft | 482 kts | 349° |
| 2026-05-05 15:04 | 44.65608 | 47.30951 | 30937 ft | 482 kts | 349° |
| 2026-05-05 15:05 | 44.75568 | 47.29020 | 30938 ft | 481 kts | 349° |
| 2026-05-05 15:06 | 44.82194 | 47.27738 | 30939 ft | 481 kts | 350° |
| 2026-05-05 15:06 | 44.88812 | 47.26455 | 30941 ft | 479 kts | 350° |
| 2026-05-05 15:07 | 44.95413 | 47.25170 | 30938 ft | 478 kts | 351° |
| 2026-05-05 15:07 | 45.02004 | 47.23885 | 30937 ft | 478 kts | 351° |
| 2026-05-05 15:08 | 45.08583 | 47.22600 | 30932 ft | 477 kts | 351° |
| 2026-05-05 15:08 | 45.15150 | 47.21315 | 30930 ft | 476 kts | 352° |
| 2026-05-05 15:09 | 45.21707 | 47.20028 | 30932 ft | 475 kts | 352° |
| 2026-05-05 15:09 | 45.28245 | 47.18743 | 30930 ft | 473 kts | 352° |
| 2026-05-05 15:10 | 45.34759 | 47.17459 | 30933 ft | 473 kts | 352° |
| 2026-05-05 15:10 | 45.41274 | 47.16173 | 30930 ft | 472 kts | 352° |
| 2026-05-05 15:11 | 45.47764 | 47.14887 | 30931 ft | 471 kts | 352° |
| 2026-05-05 15:11 | 45.54249 | 47.13600 | 30932 ft | 470 kts | 352° |
| 2026-05-05 15:12 | 45.60726 | 47.12312 | 30932 ft | 470 kts | 352° |
| 2026-05-05 15:12 | 45.67199 | 47.11022 | 30934 ft | 470 kts | 352° |
| 2026-05-05 15:13 | 45.73679 | 47.09754 | 30935 ft | 470 kts | 353° |
| 2026-05-05 15:13 | 45.80150 | 47.08475 | 30931 ft | 470 kts | 353° |
| 2026-05-05 15:14 | 45.86630 | 47.07200 | 30933 ft | 471 kts | 353° |
| 2026-05-05 15:14 | 45.93055 | 47.05421 | 30931 ft | 472 kts | 342° |
| 2026-05-05 15:15 | 45.98988 | 47.01387 | 30937 ft | 473 kts | 332° |
| 2026-05-05 15:15 | 46.04739 | 46.96781 | 30926 ft | 473 kts | 332° |
| 2026-05-05 15:16 | 46.10518 | 46.92250 | 30930 ft | 473 kts | 333° |
| 2026-05-05 15:16 | 46.16316 | 46.87765 | 30930 ft | 473 kts | 332° |
| 2026-05-05 15:17 | 46.22137 | 46.83337 | 30930 ft | 473 kts | 334° |
| 2026-05-05 15:17 | 46.28100 | 46.79293 | 30935 ft | 474 kts | 336° |
| 2026-05-05 15:18 | 46.34095 | 46.75326 | 30927 ft | 474 kts | 336° |
| 2026-05-05 15:18 | 46.40108 | 46.71287 | 30928 ft | 473 kts | 335° |
| 2026-05-05 15:19 | 46.46065 | 46.67238 | 30927 ft | 473 kts | 335° |
| 2026-05-05 15:19 | 46.52015 | 46.63173 | 30925 ft | 473 kts | 335° |
| 2026-05-05 15:20 | 46.57962 | 46.59101 | 30923 ft | 472 kts | 335° |
| 2026-05-05 15:20 | 46.63895 | 46.55034 | 30928 ft | 471 kts | 335° |
| 2026-05-05 15:21 | 46.69824 | 46.50955 | 30928 ft | 471 kts | 335° |
| 2026-05-05 15:21 | 46.75747 | 46.46875 | 30929 ft | 471 kts | 335° |
| 2026-05-05 15:22 | 46.81666 | 46.42785 | 30925 ft | 470 kts | 335° |
| 2026-05-05 15:22 | 46.87570 | 46.38693 | 30926 ft | 469 kts | 335° |
| 2026-05-05 15:23 | 46.93431 | 46.34626 | 30933 ft | 469 kts | 335° |
| 2026-05-05 15:23 | 46.99320 | 46.30525 | 30933 ft | 468 kts | 336° |
| 2026-05-05 15:24 | 47.05139 | 46.26466 | 30926 ft | 468 kts | 336° |
| 2026-05-05 15:24 | 47.11011 | 46.22362 | 30929 ft | 467 kts | 336° |
| 2026-05-05 15:25 | 47.15923 | 46.18922 | 30933 ft | 467 kts | 336° |
| 2026-05-05 15:25 | 47.22745 | 46.14131 | 30936 ft | 468 kts | 336° |
| 2026-05-05 15:26 | 47.27668 | 46.10666 | 30926 ft | 468 kts | 336° |
| 2026-05-05 15:26 | 47.33540 | 46.06523 | 30924 ft | 469 kts | 336° |
| 2026-05-05 15:27 | 47.39424 | 46.02360 | 30934 ft | 469 kts | 336° |
| 2026-05-05 15:27 | 47.45321 | 45.98188 | 30932 ft | 470 kts | 336° |
| 2026-05-05 15:28 | 47.51221 | 45.94008 | 30930 ft | 471 kts | 336° |
| 2026-05-05 15:28 | 47.57130 | 45.89807 | 30935 ft | 471 kts | 336° |
| 2026-05-05 15:29 | 47.63046 | 45.85592 | 30937 ft | 472 kts | 336° |
| 2026-05-05 15:29 | 47.68962 | 45.81364 | 30937 ft | 472 kts | 336° |
| 2026-05-05 15:30 | 47.74883 | 45.77122 | 30936 ft | 472 kts | 336° |
| 2026-05-05 15:30 | 47.80757 | 45.72904 | 30938 ft | 471 kts | 336° |
| 2026-05-05 15:31 | 47.86668 | 45.68647 | 30942 ft | 472 kts | 336° |
| 2026-05-05 15:31 | 47.92570 | 45.64389 | 30939 ft | 471 kts | 336° |
| 2026-05-05 15:32 | 47.98477 | 45.60113 | 30939 ft | 472 kts | 336° |
| 2026-05-05 15:32 | 48.04380 | 45.55829 | 30939 ft | 472 kts | 336° |
| 2026-05-05 15:33 | 48.10278 | 45.51536 | 30942 ft | 471 kts | 336° |
| 2026-05-05 15:33 | 48.16174 | 45.47237 | 30941 ft | 471 kts | 336° |
| 2026-05-05 15:34 | 48.22068 | 45.42929 | 30941 ft | 471 kts | 336° |
| 2026-05-05 15:34 | 48.27949 | 45.38618 | 30944 ft | 471 kts | 336° |
| 2026-05-05 15:35 | 48.33837 | 45.34292 | 30944 ft | 471 kts | 336° |
| 2026-05-05 15:35 | 48.39667 | 45.29947 | 30943 ft | 471 kts | 334° |
| 2026-05-05 15:36 | 48.45076 | 45.24184 | 30948 ft | 474 kts | 324° |
| 2026-05-05 15:36 | 48.50199 | 45.18041 | 30937 ft | 474 kts | 324° |
| 2026-05-05 15:37 | 48.55374 | 45.11883 | 30944 ft | 473 kts | 324° |
| 2026-05-05 15:37 | 48.60561 | 45.05769 | 30948 ft | 472 kts | 324° |
| 2026-05-05 15:38 | 48.65741 | 44.99672 | 30948 ft | 472 kts | 324° |
| 2026-05-05 15:38 | 48.70931 | 44.93554 | 30942 ft | 472 kts | 324° |
| 2026-05-05 15:39 | 48.76104 | 44.87426 | 30952 ft | 472 kts | 324° |
| 2026-05-05 15:39 | 48.81270 | 44.81295 | 30949 ft | 472 kts | 324° |
| 2026-05-05 15:40 | 48.86413 | 44.75112 | 30961 ft | 472 kts | 323° |
| 2026-05-05 15:40 | 48.91486 | 44.68769 | 30960 ft | 472 kts | 322° |
| 2026-05-05 15:41 | 48.96545 | 44.62382 | 30953 ft | 472 kts | 322° |
| 2026-05-05 15:41 | 49.01558 | 44.56068 | 30961 ft | 472 kts | 322° |
| 2026-05-05 15:42 | 49.06615 | 44.49700 | 30955 ft | 471 kts | 322° |
| 2026-05-05 15:42 | 49.11671 | 44.43307 | 30964 ft | 472 kts | 322° |
| 2026-05-05 15:43 | 49.16722 | 44.36923 | 30966 ft | 471 kts | 322° |
| 2026-05-05 15:43 | 49.21764 | 44.30532 | 30962 ft | 470 kts | 322° |
| 2026-05-05 15:44 | 49.26798 | 44.24127 | 30959 ft | 470 kts | 322° |
| 2026-05-05 15:44 | 49.31819 | 44.17718 | 30964 ft | 469 kts | 321° |
| 2026-05-05 15:45 | 49.36826 | 44.11310 | 30962 ft | 467 kts | 321° |
| 2026-05-05 15:45 | 49.41810 | 44.04916 | 30964 ft | 466 kts | 321° |
| 2026-05-05 15:46 | 49.46783 | 43.98519 | 30972 ft | 466 kts | 321° |
| 2026-05-05 15:46 | 49.51719 | 43.92153 | 30966 ft | 465 kts | 321° |
| 2026-05-05 15:47 | 49.56673 | 43.85765 | 30969 ft | 464 kts | 321° |
| 2026-05-05 15:47 | 49.61626 | 43.79377 | 30957 ft | 464 kts | 321° |
| 2026-05-05 15:48 | 49.66581 | 43.72965 | 30970 ft | 464 kts | 321° |
| 2026-05-05 15:48 | 49.71528 | 43.66548 | 30957 ft | 464 kts | 321° |
| 2026-05-05 15:49 | 49.76484 | 43.60099 | 30975 ft | 466 kts | 321° |
| 2026-05-05 15:49 | 49.81413 | 43.53663 | 30954 ft | 467 kts | 320° |
| 2026-05-05 15:50 | 49.86380 | 43.47160 | 30968 ft | 468 kts | 320° |
| 2026-05-05 15:50 | 49.91386 | 43.40589 | 30962 ft | 469 kts | 320° |
| 2026-05-05 15:51 | 49.96332 | 43.34078 | 30963 ft | 469 kts | 320° |
| 2026-05-05 15:51 | 50.01305 | 43.27514 | 30963 ft | 469 kts | 320° |
| 2026-05-05 15:52 | 50.06287 | 43.20919 | 30956 ft | 469 kts | 320° |
| 2026-05-05 15:52 | 50.11266 | 43.14310 | 30964 ft | 469 kts | 320° |
| 2026-05-05 15:53 | 50.16235 | 43.07693 | 30964 ft | 469 kts | 320° |
| 2026-05-05 15:53 | 50.21193 | 43.01074 | 30961 ft | 469 kts | 320° |
| 2026-05-05 15:54 | 50.26140 | 42.94449 | 30959 ft | 468 kts | 320° |
| 2026-05-05 15:54 | 50.31087 | 42.87808 | 30959 ft | 468 kts | 320° |
| 2026-05-05 15:55 | 50.35990 | 42.81207 | 30959 ft | 468 kts | 320° |
| 2026-05-05 15:55 | 50.40950 | 42.74508 | 30959 ft | 468 kts | 320° |
| 2026-05-05 15:56 | 50.45880 | 42.67831 | 30959 ft | 468 kts | 320° |
| 2026-05-05 15:56 | 50.50808 | 42.61140 | 30958 ft | 469 kts | 320° |
| 2026-05-05 15:57 | 50.55839 | 42.54707 | 30956 ft | 469 kts | 325° |
| 2026-05-05 15:57 | 50.61241 | 42.48935 | 30954 ft | 470 kts | 327° |
| 2026-05-05 15:58 | 50.66695 | 42.43231 | 30957 ft | 471 kts | 327° |
| 2026-05-05 15:58 | 50.72135 | 42.37451 | 30948 ft | 471 kts | 326° |
| 2026-05-05 15:59 | 50.77557 | 42.31616 | 30951 ft | 472 kts | 326° |
| 2026-05-05 15:59 | 50.82980 | 42.25747 | 30950 ft | 472 kts | 326° |
| 2026-05-05 16:00 | 50.88401 | 42.19862 | 30945 ft | 472 kts | 326° |
| 2026-05-05 16:00 | 50.93786 | 42.14005 | 30947 ft | 472 kts | 326° |
| 2026-05-05 16:01 | 50.99208 | 42.08091 | 30950 ft | 473 kts | 326° |
| 2026-05-05 16:01 | 51.04570 | 42.02225 | 30946 ft | 473 kts | 326° |
| 2026-05-05 16:02 | 51.09980 | 41.96291 | 30943 ft | 473 kts | 326° |
| 2026-05-05 16:02 | 51.15400 | 41.90328 | 30947 ft | 473 kts | 326° |
| 2026-05-05 16:03 | 51.20814 | 41.84353 | 30942 ft | 473 kts | 326° |
| 2026-05-05 16:03 | 51.26229 | 41.78361 | 30947 ft | 473 kts | 326° |
| 2026-05-05 16:04 | 51.31604 | 41.72400 | 30944 ft | 473 kts | 326° |
| 2026-05-05 16:04 | 51.37012 | 41.66378 | 30937 ft | 473 kts | 326° |
| 2026-05-05 16:05 | 51.42415 | 41.60344 | 30939 ft | 473 kts | 326° |
| 2026-05-05 16:05 | 51.47814 | 41.54297 | 30934 ft | 473 kts | 326° |
| 2026-05-05 16:06 | 51.52291 | 41.49270 | 30933 ft | 472 kts | 326° |
| 2026-05-05 16:06 | 51.57667 | 41.43219 | 30930 ft | 471 kts | 325° |
| 2026-05-05 16:07 | 51.63038 | 41.37154 | 30935 ft | 471 kts | 325° |
| 2026-05-05 16:07 | 51.68396 | 41.31090 | 30930 ft | 470 kts | 325° |
| 2026-05-05 16:08 | 51.73743 | 41.25023 | 30929 ft | 470 kts | 325° |
| 2026-05-05 16:08 | 51.79084 | 41.18950 | 30926 ft | 469 kts | 325° |
| 2026-05-05 16:09 | 51.84408 | 41.12873 | 30928 ft | 469 kts | 325° |
| 2026-05-05 16:09 | 51.89733 | 41.06782 | 30926 ft | 468 kts | 325° |
| 2026-05-05 16:10 | 51.95046 | 41.00684 | 30925 ft | 468 kts | 325° |
| 2026-05-05 16:10 | 52.00354 | 40.94573 | 30922 ft | 467 kts | 325° |
| 2026-05-05 16:11 | 52.05689 | 40.88556 | 30923 ft | 466 kts | 328° |
| 2026-05-05 16:12 | 52.17027 | 40.78259 | 30925 ft | 466 kts | 331° |
| 2026-05-05 16:13 | 52.31098 | 40.65286 | 30920 ft | 465 kts | 330° |
| 2026-05-05 16:13 | 52.36724 | 40.60058 | 30920 ft | 464 kts | 330° |
| 2026-05-05 16:14 | 52.47997 | 40.49580 | 30921 ft | 464 kts | 330° |
| 2026-05-05 16:15 | 52.59216 | 40.39106 | 30916 ft | 463 kts | 330° |
| 2026-05-05 16:16 | 52.70411 | 40.28600 | 30912 ft | 463 kts | 330° |
| 2026-05-05 16:17 | 52.78803 | 40.20682 | 30906 ft | 462 kts | 330° |
| 2026-05-05 16:18 | 52.87138 | 40.12782 | 30905 ft | 462 kts | 330° |
| 2026-05-05 16:19 | 52.95499 | 40.04830 | 30903 ft | 461 kts | 330° |
| 2026-05-05 16:19 | 53.03838 | 39.96860 | 30900 ft | 460 kts | 330° |
| 2026-05-05 16:20 | 53.14913 | 39.86220 | 30890 ft | 458 kts | 329° |
| 2026-05-05 16:22 | 53.28668 | 39.72911 | 30893 ft | 456 kts | 329° |
| 2026-05-05 16:23 | 53.39611 | 39.62254 | 30885 ft | 454 kts | 329° |
| 2026-05-05 16:23 | 53.47972 | 39.54803 | 30884 ft | 454 kts | 333° |
| 2026-05-05 16:24 | 53.53636 | 39.50109 | 30877 ft | 454 kts | 333° |
| 2026-05-05 16:25 | 53.62107 | 39.42953 | 30878 ft | 454 kts | 333° |
| 2026-05-05 16:25 | 53.70553 | 39.35724 | 30871 ft | 454 kts | 332° |
| 2026-05-05 16:26 | 53.81841 | 39.26018 | 30868 ft | 455 kts | 332° |
| 2026-05-05 16:27 | 53.87483 | 39.21145 | 30864 ft | 455 kts | 332° |
| 2026-05-05 16:27 | 53.93116 | 39.16260 | 30867 ft | 455 kts | 332° |
| 2026-05-05 16:28 | 53.98654 | 39.11438 | 30865 ft | 455 kts | 332° |
| 2026-05-05 16:28 | 54.04259 | 39.06542 | 30867 ft | 455 kts | 332° |
| 2026-05-05 16:29 | 54.09886 | 39.01613 | 30856 ft | 455 kts | 332° |
| 2026-05-05 16:29 | 54.15510 | 38.96672 | 30858 ft | 455 kts | 332° |
| 2026-05-05 16:30 | 54.21055 | 38.91440 | 30828 ft | 454 kts | 323° |
| 2026-05-05 16:30 | 54.25589 | 38.84012 | 30852 ft | 453 kts | 306° |
| 2026-05-05 16:31 | 54.29055 | 38.75035 | 30852 ft | 452 kts | 302° |
| 2026-05-05 16:31 | 54.32411 | 38.65939 | 30857 ft | 452 kts | 302° |
| 2026-05-05 16:32 | 54.35803 | 38.56869 | 30857 ft | 452 kts | 302° |
| 2026-05-05 16:32 | 54.39211 | 38.47816 | 30857 ft | 451 kts | 302° |
| 2026-05-05 16:33 | 54.42576 | 38.38861 | 30860 ft | 451 kts | 302° |
| 2026-05-05 16:33 | 54.45969 | 38.29790 | 30855 ft | 451 kts | 302° |
| 2026-05-05 16:34 | 54.49349 | 38.20718 | 30854 ft | 450 kts | 302° |
| 2026-05-05 16:34 | 54.52259 | 38.11306 | 30864 ft | 450 kts | 295° |
| 2026-05-05 16:35 | 54.54909 | 38.01568 | 30853 ft | 449 kts | 295° |
| 2026-05-05 16:35 | 54.57571 | 37.91840 | 30853 ft | 449 kts | 295° |
| 2026-05-05 16:36 | 54.60232 | 37.82241 | 30846 ft | 448 kts | 295° |
| 2026-05-05 16:36 | 54.62921 | 37.72549 | 30851 ft | 448 kts | 295° |
| 2026-05-05 16:37 | 54.65600 | 37.62856 | 30846 ft | 448 kts | 295° |
| 2026-05-05 16:37 | 54.68271 | 37.53138 | 30847 ft | 447 kts | 295° |
| 2026-05-05 16:38 | 54.70933 | 37.43412 | 30839 ft | 447 kts | 294° |
| 2026-05-05 16:38 | 54.72640 | 37.33123 | 30841 ft | 446 kts | 277° |
| 2026-05-05 16:39 | 54.72869 | 37.22408 | 30824 ft | 446 kts | 271° |
| 2026-05-05 16:39 | 54.72916 | 37.11666 | 30836 ft | 446 kts | 271° |
| 2026-05-05 16:40 | 54.72997 | 37.01010 | 30832 ft | 446 kts | 271° |
| 2026-05-05 16:40 | 54.73096 | 36.90295 | 30831 ft | 445 kts | 271° |
| 2026-05-05 16:41 | 54.73188 | 36.79575 | 30829 ft | 445 kts | 271° |
| 2026-05-05 16:41 | 54.73273 | 36.68803 | 30829 ft | 445 kts | 271° |
| 2026-05-05 16:42 | 54.73356 | 36.58228 | 30827 ft | 445 kts | 271° |
| 2026-05-05 16:42 | 54.73462 | 36.47526 | 30830 ft | 445 kts | 271° |
| 2026-05-05 16:43 | 54.73557 | 36.36887 | 30828 ft | 445 kts | 271° |
| 2026-05-05 16:43 | 54.73642 | 36.26181 | 30826 ft | 445 kts | 271° |
| 2026-05-05 16:44 | 54.73714 | 36.15476 | 30824 ft | 445 kts | 271° |
| 2026-05-05 16:44 | 54.73760 | 36.04768 | 30830 ft | 445 kts | 270° |
| 2026-05-05 16:45 | 54.73793 | 35.94058 | 30824 ft | 445 kts | 270° |
| 2026-05-05 16:45 | 54.73820 | 35.83356 | 30829 ft | 445 kts | 270° |
| 2026-05-05 16:46 | 54.73839 | 35.72651 | 30829 ft | 444 kts | 270° |
| 2026-05-05 16:46 | 54.73848 | 35.61972 | 30829 ft | 444 kts | 270° |
| 2026-05-05 16:47 | 54.73846 | 35.51273 | 30830 ft | 445 kts | 270° |
| 2026-05-05 16:47 | 54.73838 | 35.40578 | 30826 ft | 445 kts | 270° |
| 2026-05-05 16:48 | 54.73824 | 35.31611 | 30824 ft | 445 kts | 270° |
| 2026-05-05 16:48 | 54.73795 | 35.20912 | 30829 ft | 444 kts | 269° |
| 2026-05-05 16:49 | 54.73646 | 35.10216 | 30835 ft | 444 kts | 268° |
| 2026-05-05 16:49 | 54.73440 | 34.99532 | 30831 ft | 444 kts | 268° |
| 2026-05-05 16:50 | 54.73234 | 34.88878 | 30831 ft | 443 kts | 268° |
| 2026-05-05 16:50 | 54.73030 | 34.78228 | 30827 ft | 443 kts | 268° |
| 2026-05-05 16:51 | 54.72820 | 34.67575 | 30829 ft | 443 kts | 268° |
| 2026-05-05 16:51 | 54.72601 | 34.56916 | 30826 ft | 443 kts | 268° |
| 2026-05-05 16:52 | 54.72373 | 34.46262 | 30828 ft | 443 kts | 268° |
| 2026-05-05 16:52 | 54.72134 | 34.35634 | 30829 ft | 439 kts | 268° |
| 2026-05-05 16:53 | 54.71893 | 34.25218 | 30839 ft | 436 kts | 268° |
| 2026-05-05 16:53 | 54.71640 | 34.14714 | 30827 ft | 437 kts | 268° |
| 2026-05-05 16:54 | 54.71379 | 34.04187 | 30830 ft | 438 kts | 268° |
| 2026-05-05 16:54 | 54.71109 | 33.93637 | 30832 ft | 439 kts | 268° |
| 2026-05-05 16:55 | 54.70787 | 33.83100 | 30836 ft | 439 kts | 265° |
| 2026-05-05 16:55 | 54.70150 | 33.72592 | 30836 ft | 439 kts | 264° |
| 2026-05-05 16:56 | 54.69425 | 33.62102 | 30834 ft | 439 kts | 264° |
| 2026-05-05 16:56 | 54.68713 | 33.51607 | 30829 ft | 440 kts | 264° |
| 2026-05-05 16:57 | 54.68014 | 33.41117 | 30832 ft | 439 kts | 264° |
| 2026-05-05 16:57 | 54.67316 | 33.30640 | 30836 ft | 439 kts | 264° |
| 2026-05-05 16:58 | 54.66607 | 33.20150 | 30834 ft | 439 kts | 264° |
| 2026-05-05 16:58 | 54.65891 | 33.09689 | 30838 ft | 439 kts | 263° |
| 2026-05-05 16:59 | 54.65165 | 32.99216 | 30842 ft | 439 kts | 263° |
| 2026-05-05 16:59 | 54.64434 | 32.88811 | 30841 ft | 438 kts | 263° |
| 2026-05-05 17:00 | 54.63693 | 32.78384 | 30842 ft | 438 kts | 263° |
| 2026-05-05 17:00 | 54.62940 | 32.67943 | 30834 ft | 438 kts | 263° |
| 2026-05-05 17:01 | 54.62178 | 32.57501 | 30837 ft | 438 kts | 263° |
| 2026-05-05 17:01 | 54.61415 | 32.47183 | 30835 ft | 438 kts | 263° |
| 2026-05-05 17:02 | 54.60637 | 32.36767 | 30841 ft | 438 kts | 263° |
| 2026-05-05 17:02 | 54.59856 | 32.26423 | 30838 ft | 438 kts | 263° |
| 2026-05-05 17:03 | 54.59062 | 32.16024 | 30840 ft | 437 kts | 263° |
| 2026-05-05 17:03 | 54.58257 | 32.05633 | 30845 ft | 437 kts | 263° |
| 2026-05-05 17:04 | 54.57445 | 31.95266 | 30853 ft | 437 kts | 263° |
| 2026-05-05 17:04 | 54.56624 | 31.84883 | 30846 ft | 436 kts | 263° |
| 2026-05-05 17:05 | 54.55794 | 31.74511 | 30844 ft | 436 kts | 262° |
| 2026-05-05 17:05 | 54.54958 | 31.64163 | 30845 ft | 436 kts | 262° |
| 2026-05-05 17:06 | 54.54110 | 31.53806 | 30846 ft | 436 kts | 262° |
| 2026-05-05 17:06 | 54.53261 | 31.43532 | 30846 ft | 436 kts | 262° |
| 2026-05-05 17:07 | 54.52400 | 31.33219 | 30844 ft | 435 kts | 262° |
| 2026-05-05 17:07 | 54.51531 | 31.22915 | 30845 ft | 435 kts | 262° |
| 2026-05-05 17:08 | 54.50654 | 31.12606 | 30849 ft | 434 kts | 262° |
| 2026-05-05 17:08 | 54.49271 | 31.02506 | 30855 ft | 434 kts | 253° |
| 2026-05-05 17:09 | 54.47375 | 30.92624 | 30853 ft | 435 kts | 252° |
| 2026-05-05 17:09 | 54.45474 | 30.82752 | 30851 ft | 434 kts | 253° |
| 2026-05-05 17:10 | 54.43592 | 30.72895 | 30848 ft | 434 kts | 253° |
| 2026-05-05 17:10 | 54.41729 | 30.63115 | 30850 ft | 434 kts | 253° |
| 2026-05-05 17:11 | 54.39846 | 30.53269 | 30845 ft | 434 kts | 252° |
| 2026-05-05 17:11 | 54.37951 | 30.43407 | 30390 ft | 441 kts | 252° |
| 2026-05-05 17:12 | 54.36986 | 30.38415 | 29681 ft | 439 kts | 252° |
| 2026-05-05 17:12 | 54.36024 | 30.33447 | 28817 ft | 438 kts | 252° |
| 2026-05-05 17:12 | 54.35060 | 30.28485 | 27952 ft | 438 kts | 252° |
| 2026-05-05 17:12 | 54.34096 | 30.23531 | 27066 ft | 438 kts | 252° |
| 2026-05-05 17:13 | 54.33128 | 30.18567 | 26155 ft | 438 kts | 252° |
| 2026-05-05 17:13 | 54.32165 | 30.13645 | 25525 ft | 433 kts | 252° |
| 2026-05-05 17:13 | 54.31209 | 30.08779 | 24872 ft | 429 kts | 252° |
| 2026-05-05 17:13 | 54.30261 | 30.03959 | 24228 ft | 425 kts | 252° |
| 2026-05-05 17:14 | 54.29320 | 29.99185 | 23591 ft | 421 kts | 252° |
| 2026-05-05 17:14 | 54.28385 | 29.94448 | 22847 ft | 418 kts | 251° |
| 2026-05-05 17:14 | 54.27455 | 29.89761 | 22157 ft | 414 kts | 251° |
| 2026-05-05 17:14 | 54.26533 | 29.85117 | 21513 ft | 409 kts | 251° |
| 2026-05-05 17:15 | 54.25622 | 29.80535 | 20863 ft | 405 kts | 251° |
| 2026-05-05 17:15 | 54.24730 | 29.76060 | 20241 ft | 401 kts | 252° |
| 2026-05-05 17:15 | 54.23833 | 29.71569 | 19620 ft | 397 kts | 251° |
| 2026-05-05 17:15 | 54.22943 | 29.67125 | 18981 ft | 394 kts | 251° |
| 2026-05-05 17:16 | 54.22057 | 29.62711 | 18369 ft | 391 kts | 251° |
| 2026-05-05 17:16 | 54.21177 | 29.58335 | 17716 ft | 388 kts | 251° |
| 2026-05-05 17:16 | 54.20302 | 29.53998 | 17054 ft | 385 kts | 251° |
| 2026-05-05 17:16 | 54.19436 | 29.49704 | 16419 ft | 380 kts | 251° |
| 2026-05-05 17:17 | 54.18576 | 29.45462 | 15805 ft | 376 kts | 251° |
| 2026-05-05 17:17 | 54.17723 | 29.41256 | 15205 ft | 373 kts | 251° |
| 2026-05-05 17:17 | 54.16878 | 29.37086 | 14614 ft | 370 kts | 251° |
| 2026-05-05 17:17 | 54.16040 | 29.32954 | 14016 ft | 368 kts | 251° |
| 2026-05-05 17:18 | 54.15206 | 29.28844 | 13402 ft | 364 kts | 251° |
| 2026-05-05 17:18 | 54.14377 | 29.24782 | 12755 ft | 362 kts | 250° |
| 2026-05-05 17:18 | 54.13553 | 29.20752 | 12148 ft | 358 kts | 250° |
| 2026-05-05 17:18 | 54.12661 | 29.16792 | 11474 ft | 358 kts | 246° |
| 2026-05-05 17:19 | 54.11636 | 29.12953 | 11066 ft | 350 kts | 245° |
| 2026-05-05 17:19 | 54.10608 | 29.09289 | 10866 ft | 336 kts | 244° |
| 2026-05-05 17:19 | 54.09617 | 29.05768 | 10727 ft | 323 kts | 244° |
| 2026-05-05 17:19 | 54.08669 | 29.02375 | 10582 ft | 311 kts | 244° |
| 2026-05-05 17:20 | 54.07762 | 28.99106 | 10457 ft | 299 kts | 244° |
| 2026-05-05 17:20 | 54.06894 | 28.95957 | 10338 ft | 288 kts | 244° |
| 2026-05-05 17:20 | 54.06059 | 28.92921 | 10212 ft | 278 kts | 245° |
| 2026-05-05 17:20 | 54.05253 | 28.89983 | 10095 ft | 269 kts | 244° |
| 2026-05-05 17:21 | 54.04486 | 28.87189 | 9997 ft | 260 kts | 244° |
| 2026-05-05 17:21 | 54.03722 | 28.84416 | 9881 ft | 251 kts | 244° |
| 2026-05-05 17:21 | 54.02988 | 28.81749 | 9663 ft | 248 kts | 244° |
| 2026-05-05 17:22 | 54.01547 | 28.76504 | 9131 ft | 244 kts | 244° |
| 2026-05-05 17:22 | 54.00817 | 28.73862 | 8856 ft | 243 kts | 244° |
| 2026-05-05 17:22 | 54.00099 | 28.71268 | 8592 ft | 242 kts | 244° |
| 2026-05-05 17:22 | 53.99394 | 28.68720 | 8336 ft | 240 kts | 244° |
| 2026-05-05 17:23 | 53.98687 | 28.66167 | 8079 ft | 238 kts | 244° |
| 2026-05-05 17:23 | 53.97986 | 28.63632 | 7826 ft | 236 kts | 244° |
| 2026-05-05 17:23 | 53.97287 | 28.61114 | 7567 ft | 235 kts | 244° |
| 2026-05-05 17:23 | 53.96583 | 28.58577 | 7296 ft | 234 kts | 244° |
| 2026-05-05 17:24 | 53.95892 | 28.56087 | 7039 ft | 232 kts | 244° |
| 2026-05-05 17:24 | 53.95204 | 28.53613 | 6780 ft | 231 kts | 244° |
| 2026-05-05 17:24 | 53.94516 | 28.51144 | 6515 ft | 230 kts | 244° |
| 2026-05-05 17:24 | 53.93832 | 28.48688 | 6258 ft | 230 kts | 244° |
| 2026-05-05 17:25 | 53.93147 | 28.46234 | 5983 ft | 230 kts | 244° |
| 2026-05-05 17:25 | 53.92925 | 28.45446 | 5926 ft | 228 kts | 243° |
| 2026-05-05 17:25 | 53.91356 | 28.41901 | 5697 ft | 233 kts | 229° |
| 2026-05-05 17:25 | 53.90262 | 28.39827 | 5509 ft | 239 kts | 229° |
| 2026-05-05 17:26 | 53.89106 | 28.37833 | 5271 ft | 237 kts | 216° |
| 2026-05-05 17:26 | 53.87584 | 28.36806 | 5084 ft | 238 kts | 191° |
| 2026-05-05 17:26 | 53.85940 | 28.36989 | 4879 ft | 240 kts | 168° |
| 2026-05-05 17:26 | 53.84451 | 28.38314 | 4666 ft | 244 kts | 146° |
| 2026-05-05 17:27 | 53.83155 | 28.40159 | 4454 ft | 242 kts | 142° |
| 2026-05-05 17:27 | 53.81902 | 28.42051 | 4231 ft | 241 kts | 142° |
| 2026-05-05 17:27 | 53.80649 | 28.43930 | 4039 ft | 240 kts | 141° |
| 2026-05-05 17:27 | 53.79418 | 28.45781 | 3965 ft | 234 kts | 141° |
| 2026-05-05 17:28 | 53.78191 | 28.47605 | 3930 ft | 235 kts | 142° |
| 2026-05-05 17:28 | 53.76953 | 28.49431 | 3888 ft | 238 kts | 142° |
| 2026-05-05 17:28 | 53.75692 | 28.51289 | 3846 ft | 241 kts | 142° |
| 2026-05-05 17:28 | 53.74857 | 28.52517 | 3808 ft | 242 kts | 142° |
| 2026-05-05 17:29 | 53.73568 | 28.54410 | 3757 ft | 242 kts | 142° |
| 2026-05-05 17:29 | 53.72268 | 28.56237 | 3703 ft | 241 kts | 151° |
| 2026-05-05 17:29 | 53.70697 | 28.57022 | 3648 ft | 233 kts | 184° |
| 2026-05-05 17:29 | 53.69175 | 28.56304 | 3624 ft | 227 kts | 212° |
| 2026-05-05 17:30 | 53.67979 | 28.54613 | 3587 ft | 224 kts | 229° |
| 2026-05-05 17:30 | 53.66954 | 28.52626 | 3549 ft | 223 kts | 230° |
| 2026-05-05 17:30 | 53.65977 | 28.50684 | 3517 ft | 208 kts | 231° |
| 2026-05-05 17:30 | 53.65083 | 28.48920 | 3455 ft | 193 kts | 230° |
| 2026-05-05 17:31 | 53.64229 | 28.47251 | 3407 ft | 179 kts | 230° |
| 2026-05-05 17:31 | 53.63593 | 28.45460 | 3346 ft | 181 kts | 262° |
| 2026-05-05 17:31 | 53.63904 | 28.43503 | 3366 ft | 178 kts | 307° |
| 2026-05-05 17:31 | 53.64745 | 28.41987 | 3362 ft | 177 kts | 311° |
| 2026-05-05 17:32 | 53.65573 | 28.40565 | 3270 ft | 161 kts | 314° |
| 2026-05-05 17:32 | 53.66346 | 28.39323 | 3269 ft | 153 kts | 314° |
| 2026-05-05 17:32 | 53.67125 | 28.38112 | 3218 ft | 149 kts | 315° |
| 2026-05-05 17:32 | 53.67890 | 28.36947 | 3201 ft | 151 kts | 315° |
| 2026-05-05 17:33 | 53.68688 | 28.35745 | 3079 ft | 152 kts | 316° |
| 2026-05-05 17:33 | 53.69472 | 28.34569 | 3016 ft | 151 kts | 316° |
| 2026-05-05 17:33 | 53.70253 | 28.33405 | 3002 ft | 150 kts | 316° |
| 2026-05-05 17:33 | 53.71034 | 28.32239 | 3010 ft | 150 kts | 316° |
| 2026-05-05 17:34 | 53.71814 | 28.31077 | 2995 ft | 150 kts | 316° |
| 2026-05-05 17:34 | 53.72597 | 28.29916 | 2990 ft | 150 kts | 317° |
| 2026-05-05 17:34 | 53.73381 | 28.28750 | 2997 ft | 150 kts | 316° |
| 2026-05-05 17:34 | 53.74171 | 28.27578 | 3002 ft | 151 kts | 316° |
| 2026-05-05 17:35 | 53.74961 | 28.26404 | 2999 ft | 151 kts | 316° |
| 2026-05-05 17:35 | 53.75751 | 28.25232 | 2988 ft | 151 kts | 316° |
| 2026-05-05 17:35 | 53.76536 | 28.24067 | 2990 ft | 150 kts | 316° |
| 2026-05-05 17:35 | 53.77316 | 28.22910 | 2989 ft | 149 kts | 317° |
| 2026-05-05 17:36 | 53.78096 | 28.21753 | 2988 ft | 149 kts | 317° |
| 2026-05-05 17:36 | 53.78848 | 28.20650 | 3002 ft | 149 kts | 317° |
| 2026-05-05 17:36 | 53.79632 | 28.19482 | 2879 ft | 151 kts | 317° |
| 2026-05-05 17:36 | 53.80414 | 28.18315 | 2703 ft | 149 kts | 317° |
| 2026-05-05 17:37 | 53.81194 | 28.17158 | 2496 ft | 149 kts | 317° |
| 2026-05-05 17:37 | 53.81976 | 28.15999 | 2303 ft | 150 kts | 317° |
| 2026-05-05 17:37 | 53.82759 | 28.14839 | 2100 ft | 149 kts | 317° |
| 2026-05-05 17:37 | 53.83533 | 28.13692 | 1903 ft | 149 kts | 318° |
| 2026-05-05 17:38 | 53.84308 | 28.12543 | 1703 ft | 148 kts | 318° |
| 2026-05-05 17:38 | 53.85080 | 28.11399 | 1508 ft | 147 kts | 319° |
| 2026-05-05 17:38 | 53.85848 | 28.10263 | 1323 ft | 147 kts | 319° |
| 2026-05-05 17:38 | 53.86620 | 28.09118 | 1119 ft | 148 kts | 320° |
| 2026-05-05 17:39 | 53.87391 | 28.07977 | 925 ft | 147 kts | 320° |
| 2026-05-05 17:39 | 53.88162 | 28.06826 | 744 ft | 148 kts | 319° |
| 2026-05-05 17:39 | 53.88920 | 28.05698 | 1279 ft | 147 kts | 321° |
| 2026-05-05 17:39 | 53.89858 | 28.04362 | 1549 ft | 202 kts | 320° |
| 2026-05-05 17:40 | 53.91003 | 28.02765 | 2197 ft | 219 kts | 321° |
| 2026-05-05 17:40 | 53.92226 | 28.01158 | 2826 ft | 229 kts | 322° |
| 2026-05-05 17:40 | 53.93608 | 27.99513 | 2952 ft | 258 kts | 324° |
| 2026-05-05 17:40 | 53.95182 | 27.97702 | 2116 ft | 284 kts | 326° |
| 2026-05-05 17:41 | 53.96669 | 27.95759 | 2342 ft | 260 kts | 311° |
| 2026-05-05 17:41 | 53.97939 | 27.93681 | 2380 ft | 253 kts | 331° |
| 2026-05-05 17:41 | 53.99647 | 27.93124 | 2470 ft | 256 kts | 9° |
| 2026-05-05 17:41 | 54.01258 | 27.94469 | 2780 ft | 267 kts | 41° |
| 2026-05-05 17:42 | 54.02439 | 27.96919 | 2977 ft | 270 kts | 62° |
| 2026-05-05 17:42 | 54.02976 | 27.99957 | 2989 ft | 271 kts | 87° |
| 2026-05-05 17:42 | 54.02689 | 28.03088 | 3000 ft | 270 kts | 113° |
| 2026-05-05 17:42 | 54.01816 | 28.05908 | 2994 ft | 268 kts | 122° |
| 2026-05-05 17:43 | 54.00836 | 28.08553 | 3009 ft | 259 kts | 123° |
| 2026-05-05 17:43 | 53.99884 | 28.11076 | 3004 ft | 248 kts | 123° |
| 2026-05-05 17:43 | 53.98973 | 28.13556 | 3009 ft | 248 kts | 122° |
| 2026-05-05 17:43 | 53.98075 | 28.16062 | 2997 ft | 248 kts | 122° |
| 2026-05-05 17:44 | 53.97182 | 28.18582 | 2988 ft | 249 kts | 122° |
| 2026-05-05 17:44 | 53.96134 | 28.20906 | 2982 ft | 248 kts | 135° |
| 2026-05-05 17:44 | 53.94883 | 28.22914 | 2989 ft | 247 kts | 140° |
| 2026-05-05 17:44 | 53.93587 | 28.24829 | 2990 ft | 247 kts | 140° |
| 2026-05-05 17:45 | 53.92320 | 28.26681 | 2988 ft | 231 kts | 141° |
| 2026-05-05 17:45 | 53.91158 | 28.28425 | 2975 ft | 217 kts | 139° |
| 2026-05-05 17:45 | 53.90044 | 28.30139 | 2990 ft | 219 kts | 139° |
| 2026-05-05 17:45 | 53.88910 | 28.31892 | 3001 ft | 222 kts | 139° |
| 2026-05-05 17:46 | 53.87769 | 28.33660 | 2989 ft | 222 kts | 139° |
| 2026-05-05 17:46 | 53.86629 | 28.35425 | 2993 ft | 222 kts | 139° |
| 2026-05-05 17:46 | 53.85494 | 28.37182 | 2990 ft | 221 kts | 139° |
| 2026-05-05 17:46 | 53.84357 | 28.38943 | 2991 ft | 221 kts | 140° |
| 2026-05-05 17:47 | 53.83022 | 28.40088 | 2992 ft | 212 kts | 177° |
| 2026-05-05 17:47 | 53.81727 | 28.39489 | 2978 ft | 187 kts | 222° |
| 2026-05-05 17:47 | 53.80882 | 28.37817 | 2996 ft | 188 kts | 232° |
| 2026-05-05 17:47 | 53.80034 | 28.36106 | 3006 ft | 188 kts | 231° |
| 2026-05-05 17:48 | 53.79231 | 28.34498 | 2972 ft | 169 kts | 231° |
| 2026-05-05 17:48 | 53.78479 | 28.32990 | 3005 ft | 177 kts | 231° |
| 2026-05-05 17:48 | 53.77642 | 28.31308 | 3007 ft | 191 kts | 231° |
| 2026-05-05 17:48 | 53.76789 | 28.29590 | 2997 ft | 189 kts | 232° |
| 2026-05-05 17:49 | 53.76157 | 28.27803 | 2965 ft | 169 kts | 250° |
| 2026-05-05 17:49 | 53.75955 | 28.25974 | 2969 ft | 152 kts | 269° |
| 2026-05-05 17:49 | 53.76084 | 28.24262 | 3019 ft | 145 kts | 283° |
| 2026-05-05 17:49 | 53.76435 | 28.22641 | 3003 ft | 147 kts | 294° |
| 2026-05-05 17:50 | 53.76897 | 28.21081 | 3001 ft | 149 kts | 295° |
| 2026-05-05 17:50 | 53.77463 | 28.19610 | 2986 ft | 150 kts | 307° |
| 2026-05-05 17:50 | 53.78155 | 28.18297 | 2975 ft | 149 kts | 310° |
| 2026-05-05 17:50 | 53.78884 | 28.17028 | 2815 ft | 149 kts | 314° |
| 2026-05-05 17:51 | 53.79644 | 28.15846 | 2621 ft | 148 kts | 316° |
| 2026-05-05 17:51 | 53.80416 | 28.14682 | 2432 ft | 149 kts | 317° |
| 2026-05-05 17:51 | 53.81193 | 28.13526 | 2232 ft | 148 kts | 317° |
| 2026-05-05 17:51 | 53.81966 | 28.12378 | 2040 ft | 148 kts | 318° |
| 2026-05-05 17:52 | 53.82738 | 28.11234 | 1846 ft | 147 kts | 318° |
| 2026-05-05 17:52 | 53.83508 | 28.10092 | 1658 ft | 147 kts | 319° |
| 2026-05-05 17:52 | 53.84276 | 28.08954 | 1447 ft | 147 kts | 319° |
| 2026-05-05 17:52 | 53.85047 | 28.07813 | 1251 ft | 147 kts | 320° |
| 2026-05-05 17:53 | 53.85816 | 28.06650 | 997 ft | 149 kts | 320° |
| 2026-05-05 17:53 | 53.86589 | 28.05512 | 810 ft | 146 kts | 320° |
| 2026-05-05 17:53 | 53.87337 | 28.04405 | 683 ft | 136 kts | 321° |
| 2026-05-05 17:53 | 53.87976 | 28.03472 | 665 ft | 101 kts | 317° |
| 2026-05-05 17:54 | 53.88394 | 28.02851 | 658 ft | 58 kts | 319° |
| 2026-05-05 17:54 | 53.88589 | 28.02567 | 657 ft | 19 kts | 319° |
| 2026-05-05 17:54 | 53.88715 | 28.02383 | 656 ft | 25 kts | 319° |
| 2026-05-05 17:54 | 53.88823 | 28.02238 | 654 ft | 14 kts | 343° |
| 2026-05-05 17:55 | 53.88912 | 28.02278 | 654 ft | 13 kts | 39° |
| 2026-05-05 17:55 | 53.88921 | 28.02293 | 654 ft | 0 kts | 46° |
| 2026-05-05 17:55 | 53.88922 | 28.02295 | 654 ft | 2 kts | 46° |
| 2026-05-05 17:55 | 53.88935 | 28.02320 | 656 ft | 3 kts | 48° |
| 2026-05-05 17:56 | 53.88950 | 28.02348 | 655 ft | 3 kts | 49° |
| 2026-05-05 17:56 | 53.88962 | 28.02371 | 657 ft | 0 kts | 51° |
| 2026-05-05 17:56 | 53.88974 | 28.02395 | 657 ft | 8 kts | 48° |
| 2026-05-05 17:56 | 53.89012 | 28.02468 | 655 ft | 8 kts | 49° |
| 2026-05-05 17:57 | 53.89049 | 28.02540 | 656 ft | 9 kts | 49° |
| 2026-05-05 17:57 | 53.89069 | 28.02669 | 657 ft | 14 kts | 120° |
| 2026-05-05 17:57 | 53.89000 | 28.02775 | 658 ft | 13 kts | 138° |
| 2026-05-05 17:57 | 53.88933 | 28.02877 | 657 ft | 13 kts | 138° |
| 2026-05-05 17:58 | 53.88868 | 28.02977 | 658 ft | 12 kts | 138° |
| 2026-05-05 17:58 | 53.88814 | 28.03086 | 658 ft | 12 kts | 114° |
| 2026-05-05 17:58 | 53.88794 | 28.03221 | 659 ft | 12 kts | 99° |
| 2026-05-05 17:58 | 53.88789 | 28.03359 | 659 ft | 11 kts | 86° |
| 2026-05-05 17:59 | 53.88803 | 28.03489 | 660 ft | 11 kts | 75° |
| 2026-05-05 17:59 | 53.88827 | 28.03560 | 660 ft | 3 kts | 43° |
| 2026-05-05 17:59 | 53.88870 | 28.03626 | 660 ft | 11 kts | 38° |
| 2026-05-05 17:59 | 53.88939 | 28.03668 | 660 ft | 11 kts | 346° |
| 2026-05-05 18:00 | 53.88954 | 28.03642 | 659 ft | 6 kts | 310° |
| 2026-05-05 18:00 | 53.88965 | 28.03614 | 659 ft | 0 kts | 303° |